aviador You're here:

KHKY Decoded Metar

HICKORY in NC, USA
Report Time2017-09-23 19:53:00
UTC Time2017-09-23 20:04:54
Flight Rules vfr VFR
Wind080° at 05 kt
W.Decomp.*RWY 06: 4.5 kt HW 2.2 kt RCW
RWY 01: 1.2 kt HW 4.9 kt RCW
W.Rank080° ranks 24
Current wind is above 080° avg. (4.9)
Visibility9999 m
Phenomena:N/A
Clouds:Scattered 100 Hf
Expected CloudBase > 6,400 ft AGL from Temp-Dew spread
CeilingNone
Temp31°C (ISA +18)
Dew Point15°C (38% RH)
Heat Index30.6°C
AAT30.8°C
QNH1018 hPa
Density Alt3,314 ft
Elevation1,161 ft
Report Wrong Elevation
Raw Report
METAR KHKY 231953Z 08005KT 10SM SCT100 31/15 A3005 RMK AO2 SLP152 T03060150=

Extra information for KHKY:More info

Metar Taf Metar & Taf Last 4 Metars F.Rules Stats Wind Profile Meteogram Temp Stats Airport Information Weather charts Add Link Nearby VenuesMetar ALERT Operation Metar Decoded Social comments

AIRNAV info for KHKY